Time;durP1;ratioP1;P1;durP2;ratioP2;P2;SDS_P1;SDS_P2;PMS_P1;PMS_P2;Temp;Humidity;BMP_temperature;BMP_pressure;BME280_temperature;BME280_humidity;BME280_pressure;Samples;Min_cycle;Max_cycle;Signal;HPM_P1;HPM_P2
2023/07/27 00:01:18;;;;;;;;;;;12.90;99.90;;;;;;7320867;19;9237;-79
2023/07/27 00:03:47;;;;;;;;;;;12.90;99.90;;;;;;7320565;19;9234;-79
2023/07/27 00:06:18;;;;;;;;;;;12.90;99.90;;;;;;7322205;19;10572;-80
2023/07/27 00:08:47;;;;;;;;;;;12.80;99.90;;;;;;7322715;19;9177;-80
2023/07/27 00:11:16;;;;;;;;;;;12.80;99.90;;;;;;7322617;19;9124;-80
2023/07/27 00:13:45;;;;;;;;;;;12.80;99.90;;;;;;7323227;19;8944;-80
2023/07/27 00:16:14;;;;;;;;;;;12.90;99.90;;;;;;7328312;19;9305;-80
2023/07/27 00:18:43;;;;;;;;;;;12.80;99.90;;;;;;7330439;19;9336;-80
2023/07/27 00:21:12;;;;;;;;;;;12.80;99.90;;;;;;7329234;19;9209;-80
2023/07/27 00:23:43;;;;;;;;;;;12.80;99.90;;;;;;7329355;19;9615;-80
2023/07/27 00:26:12;;;;;;;;;;;12.70;99.90;;;;;;7330361;19;9197;-80
2023/07/27 00:28:41;;;;;;;;;;;12.70;99.90;;;;;;7329542;19;10289;-80
2023/07/27 00:31:10;;;;;;;;;;;12.70;99.90;;;;;;7328029;19;9170;-80
2023/07/27 00:33:39;;;;;;;;;;;12.70;99.90;;;;;;7330507;19;9506;-80
2023/07/27 00:36:08;;;;;;;;;;;12.70;99.90;;;;;;7329522;19;9452;-80
2023/07/27 00:38:37;;;;;;;;;;;12.70;99.90;;;;;;7327695;19;9289;-80
2023/07/27 00:41:09;;;;;;;;;;;12.80;99.90;;;;;;7330017;19;9232;-80
2023/07/27 00:43:37;;;;;;;;;;;12.80;99.90;;;;;;7329572;19;9562;-80
2023/07/27 00:46:07;;;;;;;;;;;12.80;99.90;;;;;;7326342;19;9533;-80
2023/07/27 00:48:56;;;;;;;;;;;12.80;99.90;;;;;;7328243;19;9539;-80
2023/07/27 00:51:25;;;;;;;;;;;12.70;99.90;;;;;;7328032;19;8944;-80
2023/07/27 00:53:54;;;;;;;;;;;12.70;99.90;;;;;;7324111;19;9156;-80
2023/07/27 00:56:25;;;;;;;;;;;12.70;99.90;;;;;;7326497;19;9499;-80
2023/07/27 00:58:55;;;;;;;;;;;12.70;99.90;;;;;;7321403;19;9008;-80
2023/07/27 01:01:25;;;;;;;;;;;12.70;99.90;;;;;;7327178;19;9237;-80
2023/07/27 01:03:54;;;;;;;;;;;12.60;99.90;;;;;;7328600;19;9585;-80
2023/07/27 01:06:24;;;;;;;;;;;12.60;99.90;;;;;;7328597;19;9506;-80
2023/07/27 01:08:54;;;;;;;;;;;12.50;99.90;;;;;;7328295;19;8945;-80
2023/07/27 01:11:34;;;;;;;;;;;12.50;99.90;;;;;;7326637;19;9269;-80
2023/07/27 01:14:11;;;;;;;;;;;12.40;99.90;;;;;;7326667;19;9693;-80
2023/07/27 01:16:49;;;;;;;;;;;12.30;99.90;;;;;;7325943;19;9488;-80
2023/07/27 01:19:50;;;;;;;;;;;12.30;99.90;;;;;;7324871;19;9542;-79
2023/07/27 01:22:35;;;;;;;;;;;12.40;99.90;;;;;;7326192;19;9220;-80
2023/07/27 01:25:28;;;;;;;;;;;12.40;99.90;;;;;;7322843;19;9552;-80
2023/07/27 01:28:15;;;;;;;;;;;12.40;99.90;;;;;;7325630;19;9192;-80
2023/07/27 01:30:53;;;;;;;;;;;12.50;99.90;;;;;;7323747;19;9618;-79
2023/07/27 01:33:29;;;;;;;;;;;12.60;99.90;;;;;;7324896;19;9291;-80
2023/07/27 01:36:08;;;;;;;;;;;12.60;99.90;;;;;;7323027;19;9491;-80
2023/07/27 01:38:42;;;;;;;;;;;12.60;99.90;;;;;;7327228;19;9489;-80
2023/07/27 01:41:13;;;;;;;;;;;12.60;99.90;;;;;;7325820;19;9422;-80
2023/07/27 01:43:45;;;;;;;;;;;12.60;99.90;;;;;;7324960;19;9198;-79
2023/07/27 01:46:18;;;;;;;;;;;12.70;99.90;;;;;;7322568;19;9411;-76
2023/07/27 01:48:48;;;;;;;;;;;12.70;99.90;;;;;;7323953;19;9113;-80
2023/07/27 01:51:19;;;;;;;;;;;12.70;99.90;;;;;;7322944;19;9506;-80
2023/07/27 01:53:50;;;;;;;;;;;12.70;99.90;;;;;;7322203;19;9190;-80
2023/07/27 01:56:20;;;;;;;;;;;12.70;99.90;;;;;;7325451;19;9279;-79
2023/07/27 01:58:52;;;;;;;;;;;12.70;99.90;;;;;;7322669;19;9606;-80
2023/07/27 02:01:26;;;;;;;;;;;12.70;99.90;;;;;;7326375;19;10698;-79
2023/07/27 02:03:57;;;;;;;;;;;12.80;99.90;;;;;;7324499;19;9579;-80
2023/07/27 02:06:26;;;;;;;;;;;12.80;99.90;;;;;;7325263;19;9503;-80
2023/07/27 02:08:55;;;;;;;;;;;12.80;99.90;;;;;;7323870;19;9475;-80
2023/07/27 02:11:26;;;;;;;;;;;12.90;99.90;;;;;;7326236;19;9213;-79
2023/07/27 02:14:01;;;;;;;;;;;13.00;99.90;;;;;;7325194;19;9280;-79
2023/07/27 02:16:42;;;;;;;;;;;13.00;99.90;;;;;;7326644;19;9459;-79
2023/07/27 02:19:14;;;;;;;;;;;13.00;99.90;;;;;;7326345;19;9329;-80
2023/07/27 02:21:45;;;;;;;;;;;13.00;99.90;;;;;;7326248;19;9205;-80
2023/07/27 02:24:15;;;;;;;;;;;13.00;99.90;;;;;;7324910;19;9294;-79
2023/07/27 02:26:45;;;;;;;;;;;13.00;99.90;;;;;;7326509;19;9459;-80
2023/07/27 02:29:14;;;;;;;;;;;12.90;99.90;;;;;;7324871;19;9260;-80
2023/07/27 02:31:45;;;;;;;;;;;12.90;99.90;;;;;;7325453;19;9357;-80
2023/07/27 02:34:14;;;;;;;;;;;12.80;99.90;;;;;;7323938;19;9249;-80
2023/07/27 02:36:43;;;;;;;;;;;12.80;99.90;;;;;;7323198;19;9117;-80
2023/07/27 02:39:12;;;;;;;;;;;12.80;99.90;;;;;;7325661;19;9211;-80
2023/07/27 02:41:41;;;;;;;;;;;12.80;99.90;;;;;;7324699;19;9032;-80
2023/07/27 02:44:10;;;;;;;;;;;12.80;99.90;;;;;;7326222;19;9178;-80
2023/07/27 02:46:39;;;;;;;;;;;12.80;99.90;;;;;;7320281;19;9439;-80
2023/07/27 02:49:10;;;;;;;;;;;12.90;99.90;;;;;;7323705;19;9317;-80
2023/07/27 02:51:39;;;;;;;;;;;12.90;99.90;;;;;;7324590;19;9129;-80
2023/07/27 02:54:08;;;;;;;;;;;12.90;99.90;;;;;;7321125;19;9263;-80
2023/07/27 02:56:37;;;;;;;;;;;12.90;99.90;;;;;;7323700;19;9240;-80
2023/07/27 02:59:06;;;;;;;;;;;13.00;99.90;;;;;;7322618;19;9371;-80
2023/07/27 03:01:36;;;;;;;;;;;13.00;99.90;;;;;;7325041;19;10154;-80
2023/07/27 03:04:05;;;;;;;;;;;13.10;99.90;;;;;;7325467;19;10868;-80
2023/07/27 03:06:39;;;;;;;;;;;13.10;99.90;;;;;;7324720;19;9484;-79
2023/07/27 03:09:08;;;;;;;;;;;13.10;99.90;;;;;;7323710;19;9173;-80
2023/07/27 03:11:39;;;;;;;;;;;13.10;99.90;;;;;;7324229;19;9470;-80
2023/07/27 03:14:08;;;;;;;;;;;13.10;99.90;;;;;;7321278;19;9262;-80
2023/07/27 03:16:37;;;;;;;;;;;13.10;99.90;;;;;;7322485;19;9203;-80
2023/07/27 03:19:06;;;;;;;;;;;13.10;99.90;;;;;;7322842;19;9117;-80
2023/07/27 03:21:38;;;;;;;;;;;13.10;99.90;;;;;;7318941;19;9519;-80
2023/07/27 03:24:07;;;;;;;;;;;13.10;99.90;;;;;;7321299;19;9475;-80
2023/07/27 03:26:36;;;;;;;;;;;13.10;99.90;;;;;;7323039;19;9287;-80
2023/07/27 03:29:05;;;;;;;;;;;13.20;99.90;;;;;;7321172;19;9187;-80
2023/07/27 03:31:34;;;;;;;;;;;13.20;99.90;;;;;;7322588;19;9531;-80
2023/07/27 03:34:03;;;;;;;;;;;13.20;99.90;;;;;;7318993;19;9181;-80
2023/07/27 03:36:32;;;;;;;;;;;13.20;99.90;;;;;;7323704;19;9240;-80
2023/07/27 03:39:04;;;;;;;;;;;13.20;99.90;;;;;;7323878;19;10693;-80
2023/07/27 03:41:33;;;;;;;;;;;13.30;99.90;;;;;;7322132;19;9205;-80
2023/07/27 03:44:02;;;;;;;;;;;13.40;99.90;;;;;;7322642;19;9519;-80
2023/07/27 03:46:31;;;;;;;;;;;13.40;99.90;;;;;;7321067;19;10170;-80
2023/07/27 03:49:00;;;;;;;;;;;13.50;99.90;;;;;;7330876;19;9462;-80
2023/07/27 03:51:28;;;;;;;;;;;13.50;99.90;;;;;;7329533;19;9517;-80
2023/07/27 03:53:57;;;;;;;;;;;13.50;99.90;;;;;;7327215;19;9264;-80
2023/07/27 03:56:29;;;;;;;;;;;13.60;99.90;;;;;;7329480;19;9734;-80
2023/07/27 03:58:58;;;;;;;;;;;13.70;99.90;;;;;;7325976;19;9214;-80
2023/07/27 04:01:27;;;;;;;;;;;13.70;99.90;;;;;;7329659;19;9184;-80
2023/07/27 04:03:56;;;;;;;;;;;13.90;99.90;;;;;;7330509;19;8949;-80
2023/07/27 04:06:25;;;;;;;;;;;14.00;99.90;;;;;;7330314;19;10744;-80
2023/07/27 04:08:54;;;;;;;;;;;14.00;99.90;;;;;;7330015;19;9217;-80
2023/07/27 04:11:24;;;;;;;;;;;14.10;99.90;;;;;;7330502;19;9257;-80
2023/07/27 04:13:55;;;;;;;;;;;14.10;99.90;;;;;;7327017;19;9393;-80
2023/07/27 04:16:24;;;;;;;;;;;14.10;99.90;;;;;;7327949;19;9245;-80
2023/07/27 04:18:53;;;;;;;;;;;14.10;99.90;;;;;;7328871;19;9059;-80
2023/07/27 04:21:22;;;;;;;;;;;14.20;99.90;;;;;;7329951;19;9140;-80
2023/07/27 04:23:51;;;;;;;;;;;14.20;99.90;;;;;;7329003;19;9172;-80
2023/07/27 04:26:20;;;;;;;;;;;14.20;99.90;;;;;;7328553;19;10292;-80
2023/07/27 04:28:49;;;;;;;;;;;14.20;99.90;;;;;;7329125;19;11057;-80
2023/07/27 04:31:20;;;;;;;;;;;14.20;99.90;;;;;;7327981;19;9309;-80
2023/07/27 04:33:49;;;;;;;;;;;14.20;99.90;;;;;;7327483;19;9194;-80
2023/07/27 04:36:18;;;;;;;;;;;14.10;99.90;;;;;;7328880;19;9140;-80
2023/07/27 04:38:47;;;;;;;;;;;14.10;99.90;;;;;;7327023;19;9241;-80
2023/07/27 04:41:16;;;;;;;;;;;14.10;99.90;;;;;;7329325;19;9547;-80
2023/07/27 04:43:45;;;;;;;;;;;14.10;99.90;;;;;;7329401;19;9221;-80
2023/07/27 04:46:14;;;;;;;;;;;14.10;99.90;;;;;;7327794;19;9148;-80
2023/07/27 04:48:46;;;;;;;;;;;14.10;99.90;;;;;;7326749;19;9167;-80
2023/07/27 04:51:14;;;;;;;;;;;14.10;99.90;;;;;;7327714;19;9453;-80
2023/07/27 04:53:43;;;;;;;;;;;14.10;99.90;;;;;;7324335;19;9248;-78
2023/07/27 04:56:12;;;;;;;;;;;14.10;99.90;;;;;;7328398;19;9818;-80
2023/07/27 04:58:41;;;;;;;;;;;14.10;99.90;;;;;;7322893;19;8945;-80
2023/07/27 05:01:10;;;;;;;;;;;13.90;99.90;;;;;;7322310;19;9342;-80
2023/07/27 05:03:39;;;;;;;;;;;13.90;99.90;;;;;;7328057;19;9281;-80
2023/07/27 05:06:11;;;;;;;;;;;13.90;99.90;;;;;;7329388;19;9322;-80
2023/07/27 05:08:40;;;;;;;;;;;13.80;99.90;;;;;;7327768;19;9326;-80
2023/07/27 05:11:10;;;;;;;;;;;13.80;99.90;;;;;;7325054;19;9245;-81
2023/07/27 05:13:39;;;;;;;;;;;13.80;99.90;;;;;;7326296;19;9200;-81
2023/07/27 05:16:08;;;;;;;;;;;13.80;99.90;;;;;;7327011;19;9241;-81
2023/07/27 05:18:37;;;;;;;;;;;13.80;99.90;;;;;;7325629;19;9470;-81
2023/07/27 05:21:06;;;;;;;;;;;13.80;99.90;;;;;;7326056;19;9181;-81
2023/07/27 05:23:37;;;;;;;;;;;13.80;99.90;;;;;;7328013;19;9273;-81
2023/07/27 05:26:06;;;;;;;;;;;13.80;99.90;;;;;;7328548;19;9000;-80
2023/07/27 05:28:35;;;;;;;;;;;13.90;99.90;;;;;;7327880;19;9205;-81
2023/07/27 05:31:04;;;;;;;;;;;13.90;99.90;;;;;;7325926;19;9254;-81
2023/07/27 05:33:33;;;;;;;;;;;13.90;99.90;;;;;;7325861;19;9173;-80
2023/07/27 05:36:02;;;;;;;;;;;13.80;99.90;;;;;;7326902;19;9210;-80
2023/07/27 05:38:31;;;;;;;;;;;13.90;99.90;;;;;;7327144;19;9509;-80
2023/07/27 05:41:04;;;;;;;;;;;14.00;99.90;;;;;;7326796;19;9240;-80
2023/07/27 05:43:33;;;;;;;;;;;14.00;99.90;;;;;;7327077;19;9205;-80
2023/07/27 05:46:02;;;;;;;;;;;14.00;99.90;;;;;;7325595;19;9421;-80
2023/07/27 05:48:33;;;;;;;;;;;14.00;99.90;;;;;;7325005;19;10335;-80
2023/07/27 05:51:03;;;;;;;;;;;14.00;99.90;;;;;;7325452;19;9498;-80
2023/07/27 05:53:32;;;;;;;;;;;14.10;99.90;;;;;;7324595;19;9126;-80
2023/07/27 05:56:03;;;;;;;;;;;14.10;99.90;;;;;;7326774;19;9329;-79
2023/07/27 05:58:32;;;;;;;;;;;14.10;99.90;;;;;;7320548;19;9241;-74
2023/07/27 06:01:03;;;;;;;;;;;14.20;99.90;;;;;;7324032;19;9629;-81
2023/07/27 06:03:32;;;;;;;;;;;14.20;99.90;;;;;;7326470;19;9539;-81
2023/07/27 06:06:01;;;;;;;;;;;14.10;99.90;;;;;;7325226;19;9182;-74
2023/07/27 06:08:31;;;;;;;;;;;14.20;99.90;;;;;;7326243;19;9221;-82
2023/07/27 06:11:09;;;;;;;;;;;14.10;99.90;;;;;;7325781;19;8944;-80
2023/07/27 06:13:39;;;;;;;;;;;14.20;99.90;;;;;;7320001;19;9277;-80
2023/07/27 06:16:08;;;;;;;;;;;14.10;99.90;;;;;;7322096;19;9283;-78
2023/07/27 06:18:37;;;;;;;;;;;14.30;99.90;;;;;;7324486;19;10611;-77
2023/07/27 06:21:06;;;;;;;;;;;14.30;99.90;;;;;;7324947;19;9308;-78
2023/07/27 06:23:35;;;;;;;;;;;14.40;99.90;;;;;;7326981;19;9285;-79
2023/07/27 06:26:06;;;;;;;;;;;14.40;99.90;;;;;;7319386;19;9282;-79
2023/07/27 06:28:35;;;;;;;;;;;14.30;99.90;;;;;;7325488;19;9290;-79
2023/07/27 06:31:04;;;;;;;;;;;14.30;99.90;;;;;;7322969;19;9233;-78
2023/07/27 06:33:33;;;;;;;;;;;14.30;99.90;;;;;;7324028;19;11008;-79
2023/07/27 06:36:02;;;;;;;;;;;14.30;99.90;;;;;;7324091;19;9349;-78
2023/07/27 06:38:31;;;;;;;;;;;14.30;99.90;;;;;;7323632;19;9405;-78
2023/07/27 06:41:01;;;;;;;;;;;14.30;99.90;;;;;;7323234;19;10806;-78
2023/07/27 06:43:33;;;;;;;;;;;14.40;99.90;;;;;;7322860;19;9236;-78
2023/07/27 06:46:02;;;;;;;;;;;14.50;99.90;;;;;;7308016;19;9491;-78
2023/07/27 06:48:31;;;;;;;;;;;14.50;99.90;;;;;;7307023;19;9184;-78
2023/07/27 06:51:00;;;;;;;;;;;14.50;99.90;;;;;;7307923;19;9237;-79
2023/07/27 06:53:29;;;;;;;;;;;14.60;99.90;;;;;;7310400;19;9225;-79
2023/07/27 06:55:58;;;;;;;;;;;14.70;99.90;;;;;;7315394;19;9178;-79
2023/07/27 06:58:27;;;;;;;;;;;14.80;99.90;;;;;;7312640;19;9281;-79
2023/07/27 07:00:58;;;;;;;;;;;14.90;99.90;;;;;;7323718;19;9587;-79
2023/07/27 07:03:27;;;;;;;;;;;14.90;99.90;;;;;;7316636;19;9169;-79
2023/07/27 07:05:57;;;;;;;;;;;14.90;99.90;;;;;;7316148;19;9189;-79
2023/07/27 07:08:26;;;;;;;;;;;15.00;99.90;;;;;;7316795;19;9453;-78
2023/07/27 07:10:56;;;;;;;;;;;15.10;99.90;;;;;;7325127;19;10735;-79
2023/07/27 07:13:25;;;;;;;;;;;15.20;99.90;;;;;;7322905;19;9245;-78
2023/07/27 07:15:53;;;;;;;;;;;15.30;99.90;;;;;;7314562;19;9483;-79
2023/07/27 07:18:25;;;;;;;;;;;15.40;99.90;;;;;;7315035;19;9553;-78
2023/07/27 07:20:54;;;;;;;;;;;15.50;99.90;;;;;;7307914;19;9311;-79
2023/07/27 07:23:23;;;;;;;;;;;15.80;99.90;;;;;;7317158;19;9515;-79
2023/07/27 07:25:52;;;;;;;;;;;15.80;99.90;;;;;;7313425;19;9208;-79
2023/07/27 07:28:21;;;;;;;;;;;15.80;99.90;;;;;;7317018;19;9300;-78
2023/07/27 07:30:50;;;;;;;;;;;15.60;99.90;;;;;;7317779;19;9251;-78
2023/07/27 07:33:19;;;;;;;;;;;15.70;99.90;;;;;;7319829;19;9123;-79
2023/07/27 07:35:50;;;;;;;;;;;15.50;99.90;;;;;;7316514;19;9470;-78
2023/07/27 07:38:19;;;;;;;;;;;15.50;99.90;;;;;;7314115;19;11315;-79
2023/07/27 07:40:49;;;;;;;;;;;15.50;99.90;;;;;;7311120;19;9655;-79
2023/07/27 07:43:18;;;;;;;;;;;15.60;99.90;;;;;;7296821;19;9802;-79
2023/07/27 07:45:46;;;;;;;;;;;15.50;99.90;;;;;;7302134;19;11147;-79
2023/07/27 07:48:15;;;;;;;;;;;15.50;99.90;;;;;;7315308;19;9177;-79
2023/07/27 07:50:44;;;;;;;;;;;15.30;99.90;;;;;;7308313;19;9566;-79
2023/07/27 07:53:16;;;;;;;;;;;15.40;99.90;;;;;;7307530;19;9962;-78
2023/07/27 07:55:45;;;;;;;;;;;15.40;99.90;;;;;;7298073;19;9273;-78
2023/07/27 07:58:14;;;;;;;;;;;15.40;99.90;;;;;;7311164;19;9667;-78
2023/07/27 08:00:42;;;;;;;;;;;15.50;99.90;;;;;;7313025;19;8964;-79
2023/07/27 08:03:11;;;;;;;;;;;15.60;99.90;;;;;;7312264;19;9167;-79
2023/07/27 08:05:43;;;;;;;;;;;15.80;99.90;;;;;;7322225;19;9450;-78
2023/07/27 08:08:13;;;;;;;;;;;15.90;99.90;;;;;;7311096;19;9182;-78
2023/07/27 08:10:45;;;;;;;;;;;16.20;99.90;;;;;;7317484;19;9255;-78
2023/07/27 08:13:14;;;;;;;;;;;16.10;99.90;;;;;;7320000;19;9122;-79
2023/07/27 08:15:53;;;;;;;;;;;16.10;99.90;;;;;;7316836;19;9004;-79
2023/07/27 08:18:22;;;;;;;;;;;16.00;99.90;;;;;;7298364;19;9221;-79
2023/07/27 08:21:00;;;;;;;;;;;16.10;99.90;;;;;;7300468;19;9255;-79
2023/07/27 08:23:29;;;;;;;;;;;15.90;99.90;;;;;;7319173;19;9238;-78
2023/07/27 08:26:01;;;;;;;;;;;15.90;99.90;;;;;;7317931;19;11144;-78
2023/07/27 08:28:30;;;;;;;;;;;15.90;99.90;;;;;;7317452;19;9161;-80
2023/07/27 08:30:59;;;;;;;;;;;15.90;99.90;;;;;;7321386;19;9167;-78
2023/07/27 08:33:28;;;;;;;;;;;15.90;99.90;;;;;;7320463;19;9259;-79
2023/07/27 08:35:57;;;;;;;;;;;15.90;99.90;;;;;;7326435;19;10346;-79
2023/07/27 08:38:26;;;;;;;;;;;15.90;99.90;;;;;;7329393;19;9205;-78
2023/07/27 08:40:56;;;;;;;;;;;16.00;99.90;;;;;;7326546;19;9772;-79
2023/07/27 08:43:29;;;;;;;;;;;15.90;99.90;;;;;;7327135;19;9260;-79
2023/07/27 08:45:58;;;;;;;;;;;15.90;99.90;;;;;;7326034;19;9304;-79
2023/07/27 08:48:27;;;;;;;;;;;15.90;99.90;;;;;;7323495;19;9209;-78
2023/07/27 08:50:58;;;;;;;;;;;15.70;99.90;;;;;;7317794;19;9125;-80
2023/07/27 08:53:28;;;;;;;;;;;15.70;99.90;;;;;;7326997;19;9296;-77
2023/07/27 08:55:58;;;;;;;;;;;15.80;99.90;;;;;;7325432;19;9324;-77
2023/07/27 08:58:31;;;;;;;;;;;15.80;99.90;;;;;;7325926;19;9429;-78
2023/07/27 09:01:00;;;;;;;;;;;15.80;99.90;;;;;;7328529;19;9253;-77
2023/07/27 09:03:29;;;;;;;;;;;15.70;99.90;;;;;;7317436;19;9179;-77
2023/07/27 09:06:03;;;;;;;;;;;15.70;99.90;;;;;;7323765;19;9261;-77
2023/07/27 09:08:33;;;;;;;;;;;15.80;99.90;;;;;;7321699;19;9253;-77
2023/07/27 09:11:08;;;;;;;;;;;15.90;99.90;;;;;;7327985;19;9181;-81
2023/07/27 09:13:42;;;;;;;;;;;15.90;99.90;;;;;;7326700;19;9155;-82
2023/07/27 09:16:11;;;;;;;;;;;16.00;99.90;;;;;;7325560;19;9257;-81
2023/07/27 09:18:40;;;;;;;;;;;15.90;99.90;;;;;;7321196;19;10349;-84
2023/07/27 09:21:10;;;;;;;;;;;15.90;99.90;;;;;;7324463;19;9327;-84
2023/07/27 09:23:40;;;;;;;;;;;15.90;99.90;;;;;;7326684;19;9594;-83
2023/07/27 09:26:09;;;;;;;;;;;16.00;99.90;;;;;;7325144;19;9510;-81
2023/07/27 09:28:41;;;;;;;;;;;16.10;99.90;;;;;;7328203;19;8996;-82
2023/07/27 09:31:10;;;;;;;;;;;16.00;99.90;;;;;;7328385;19;10248;-85
2023/07/27 09:33:39;;;;;;;;;;;16.00;99.90;;;;;;7326126;19;9288;-83
2023/07/27 09:36:08;;;;;;;;;;;16.00;99.90;;;;;;7324464;19;9314;-77
2023/07/27 09:38:38;;;;;;;;;;;15.90;99.90;;;;;;7318561;19;9358;-84
2023/07/27 09:41:11;;;;;;;;;;;16.00;99.90;;;;;;7322773;19;9249;-80
2023/07/27 09:43:43;;;;;;;;;;;15.90;99.90;;;;;;7323781;19;10321;-84
2023/07/27 09:46:12;;;;;;;;;;;16.00;99.90;;;;;;7327472;19;9165;-86
2023/07/27 09:48:41;;;;;;;;;;;16.20;99.90;;;;;;7325983;19;9528;-86
2023/07/27 09:51:11;;;;;;;;;;;16.20;99.90;;;;;;7326709;19;11138;-85
2023/07/27 09:53:46;;;;;;;;;;;16.20;99.90;;;;;;7323900;19;9168;-87
2023/07/27 09:56:15;;;;;;;;;;;16.30;99.90;;;;;;7322998;19;9214;-80
2023/07/27 09:58:49;;;;;;;;;;;16.30;99.90;;;;;;7325242;19;9316;-82
2023/07/27 10:01:18;;;;;;;;;;;16.20;99.90;;;;;;7320397;19;10198;-81
2023/07/27 10:03:47;;;;;;;;;;;16.20;99.90;;;;;;7318111;19;9225;-86
2023/07/27 10:06:19;;;;;;;;;;;16.20;99.90;;;;;;7323051;19;9143;-83
2023/07/27 10:08:48;;;;;;;;;;;16.10;99.90;;;;;;7322051;19;9128;-83
2023/07/27 10:11:17;;;;;;;;;;;16.20;99.90;;;;;;7321532;19;9216;-83
2023/07/27 10:13:49;;;;;;;;;;;16.30;99.90;;;;;;7318459;19;9003;-82
2023/07/27 10:16:22;;;;;;;;;;;16.40;99.90;;;;;;7321077;19;9430;-83
2023/07/27 10:18:52;;;;;;;;;;;16.50;99.90;;;;;;7325776;19;9528;-82
2023/07/27 10:21:32;;;;;;;;;;;16.60;99.90;;;;;;7322069;19;9484;-86
2023/07/27 10:24:02;;;;;;;;;;;16.60;99.90;;;;;;7324647;19;9291;-86
2023/07/27 10:26:49;;;;;;;;;;;16.70;99.90;;;;;;7321932;19;9556;-84
2023/07/27 10:29:22;;;;;;;;;;;16.70;99.90;;;;;;7324777;19;8996;-83
2023/07/27 10:32:05;;;;;;;;;;;16.70;99.90;;;;;;7325671;19;9204;-82
2023/07/27 10:34:37;;;;;;;;;;;16.70;99.90;;;;;;7324888;19;9079;-80
2023/07/27 10:37:08;;;;;;;;;;;16.70;99.90;;;;;;7324013;19;9229;-82
2023/07/27 10:39:45;;;;;;;;;;;16.70;99.90;;;;;;7325417;19;9249;-83
2023/07/27 10:42:16;;;;;;;;;;;16.70;99.90;;;;;;7324303;19;9277;-82
2023/07/27 10:44:49;;;;;;;;;;;16.70;99.90;;;;;;7321360;19;9210;-83
2023/07/27 10:47:22;;;;;;;;;;;16.80;99.90;;;;;;7324330;19;9203;-83
2023/07/27 10:49:53;;;;;;;;;;;16.90;99.90;;;;;;7328583;19;9306;-81
2023/07/27 10:52:24;;;;;;;;;;;16.80;99.90;;;;;;7310377;19;10208;-83
2023/07/27 10:54:56;;;;;;;;;;;16.90;99.90;;;;;;7311934;19;9670;-84
2023/07/27 10:57:28;;;;;;;;;;;17.00;99.90;;;;;;7315489;19;9256;-84
2023/07/27 10:59:59;;;;;;;;;;;17.00;99.90;;;;;;7305481;19;9229;-85
2023/07/27 11:02:32;;;;;;;;;;;16.90;99.90;;;;;;7312567;19;9216;-86
2023/07/27 11:05:02;;;;;;;;;;;16.90;99.90;;;;;;7319395;19;9305;-84
2023/07/27 11:07:33;;;;;;;;;;;16.90;99.90;;;;;;7322649;19;9461;-84
2023/07/27 11:10:06;;;;;;;;;;;16.90;99.90;;;;;;7324900;19;9656;-84
2023/07/27 11:12:47;;;;;;;;;;;16.80;99.90;;;;;;7323301;19;9269;-84
2023/07/27 11:15:22;;;;;;;;;;;16.70;99.90;;;;;;7323854;19;9261;-83
2023/07/27 11:17:51;;;;;;;;;;;16.70;99.90;;;;;;7323087;19;9527;-83
2023/07/27 11:20:23;;;;;;;;;;;16.80;99.90;;;;;;7325675;19;9473;-84
2023/07/27 11:22:53;;;;;;;;;;;16.80;99.90;;;;;;7321801;19;9253;-84
2023/07/27 11:25:23;;;;;;;;;;;16.80;99.90;;;;;;7323286;19;9343;-84
2023/07/27 11:27:53;;;;;;;;;;;16.80;99.90;;;;;;7326358;19;9221;-84
2023/07/27 11:30:26;;;;;;;;;;;16.80;99.90;;;;;;7327065;19;9536;-84
2023/07/27 11:33:00;;;;;;;;;;;16.90;99.90;;;;;;7325583;19;9290;-84
2023/07/27 11:35:29;;;;;;;;;;;16.90;99.90;;;;;;7324403;19;9100;-84
2023/07/27 11:37:58;;;;;;;;;;;16.90;99.90;;;;;;7324919;19;9507;-85
2023/07/27 11:40:27;;;;;;;;;;;16.80;99.90;;;;;;7325924;19;9232;-84
2023/07/27 11:42:56;;;;;;;;;;;16.80;99.90;;;;;;7320601;19;9482;-83
2023/07/27 11:45:28;;;;;;;;;;;16.70;99.90;;;;;;7325156;19;9225;-84
2023/07/27 11:47:57;;;;;;;;;;;16.70;99.90;;;;;;7324896;19;9539;-84
2023/07/27 11:50:26;;;;;;;;;;;16.70;99.90;;;;;;7325514;19;9470;-84
2023/07/27 11:53:02;;;;;;;;;;;16.70;99.90;;;;;;7325690;19;10798;-84
2023/07/27 11:55:34;;;;;;;;;;;16.70;99.90;;;;;;7323488;19;9485;-84
2023/07/27 11:58:07;;;;;;;;;;;16.70;99.90;;;;;;7323315;19;9566;-83
2023/07/27 12:00:39;;;;;;;;;;;16.70;99.90;;;;;;7324876;19;9196;-84
2023/07/27 12:03:08;;;;;;;;;;;16.60;99.90;;;;;;7325252;19;9326;-84
2023/07/27 12:05:39;;;;;;;;;;;16.60;99.90;;;;;;7323217;19;10411;-84
2023/07/27 12:08:08;;;;;;;;;;;16.60;99.90;;;;;;7327450;19;9284;-84
2023/07/27 12:10:37;;;;;;;;;;;16.60;99.90;;;;;;7331528;19;9205;-85
2023/07/27 12:13:09;;;;;;;;;;;16.70;99.90;;;;;;7328532;19;9478;-84
2023/07/27 12:15:43;;;;;;;;;;;16.80;99.90;;;;;;7331228;19;9477;-84
2023/07/27 12:18:13;;;;;;;;;;;16.80;99.90;;;;;;7331890;19;9268;-83
2023/07/27 12:20:42;;;;;;;;;;;16.90;99.90;;;;;;7329101;19;9189;-84
2023/07/27 12:23:11;;;;;;;;;;;16.80;99.90;;;;;;7331062;19;9132;-84
2023/07/27 12:25:40;;;;;;;;;;;16.80;99.90;;;;;;7331056;19;9118;-84
2023/07/27 12:28:09;;;;;;;;;;;16.80;99.90;;;;;;7328937;19;9252;-84
2023/07/27 12:30:40;;;;;;;;;;;16.80;99.90;;;;;;7330602;19;9169;-84
2023/07/27 12:33:09;;;;;;;;;;;16.80;99.90;;;;;;7328087;19;10435;-84
2023/07/27 12:35:38;;;;;;;;;;;16.80;99.90;;;;;;7327212;19;9141;-84
2023/07/27 12:38:08;;;;;;;;;;;16.90;99.90;;;;;;7330032;19;9262;-84
2023/07/27 12:40:37;;;;;;;;;;;16.90;99.90;;;;;;7329938;19;9195;-84
2023/07/27 12:43:06;;;;;;;;;;;16.90;99.90;;;;;;7328735;19;9286;-84
2023/07/27 12:45:36;;;;;;;;;;;16.90;99.90;;;;;;7330676;19;9238;-84
2023/07/27 12:48:08;;;;;;;;;;;16.90;99.90;;;;;;7329772;19;9111;-84
2023/07/27 12:50:37;;;;;;;;;;;16.90;99.90;;;;;;7329837;19;9268;-84
2023/07/27 12:53:06;;;;;;;;;;;17.00;99.90;;;;;;7330334;19;9243;-84
2023/07/27 12:55:35;;;;;;;;;;;17.10;99.90;;;;;;7328102;19;10374;-84
2023/07/27 12:58:04;;;;;;;;;;;17.10;99.90;;;;;;7329517;19;9390;-85
2023/07/27 13:00:33;;;;;;;;;;;17.10;99.90;;;;;;7334722;19;9474;-85
2023/07/27 13:03:02;;;;;;;;;;;17.20;99.90;;;;;;7333262;19;10149;-85
2023/07/27 13:05:34;;;;;;;;;;;17.20;99.90;;;;;;7328389;19;9145;-85
2023/07/27 13:08:03;;;;;;;;;;;17.20;99.90;;;;;;7330728;19;9210;-85
2023/07/27 13:10:32;;;;;;;;;;;17.30;99.90;;;;;;7330190;19;10779;-84
2023/07/27 13:13:00;;;;;;;;;;;17.30;99.90;;;;;;7327636;19;9474;-84
2023/07/27 13:15:29;;;;;;;;;;;17.40;99.90;;;;;;7330596;19;9531;-85
2023/07/27 13:18:06;;;;;;;;;;;17.50;99.90;;;;;;7329652;19;9221;-85
2023/07/27 13:20:39;;;;;;;;;;;17.60;99.90;;;;;;7326845;19;9206;-85
2023/07/27 13:23:08;;;;;;;;;;;17.80;99.90;;;;;;7328852;19;9476;-85
2023/07/27 13:25:37;;;;;;;;;;;17.90;99.90;;;;;;7328904;19;9250;-86
2023/07/27 13:28:06;;;;;;;;;;;18.00;99.90;;;;;;7329680;19;9468;-85
2023/07/27 13:30:35;;;;;;;;;;;18.00;99.90;;;;;;7329078;19;9221;-85
2023/07/27 13:33:04;;;;;;;;;;;18.00;99.90;;;;;;7328662;19;9184;-84
2023/07/27 13:35:33;;;;;;;;;;;18.00;99.90;;;;;;7327350;19;9516;-85
2023/07/27 13:38:04;;;;;;;;;;;18.20;99.90;;;;;;7328764;19;9440;-84
2023/07/27 13:40:33;;;;;;;;;;;18.20;99.90;;;;;;7328138;19;10577;-84
2023/07/27 13:43:02;;;;;;;;;;;18.20;99.90;;;;;;7326250;19;9206;-85
2023/07/27 13:45:31;;;;;;;;;;;18.30;99.90;;;;;;7328329;19;9513;-85
2023/07/27 13:48:00;;;;;;;;;;;18.40;99.90;;;;;;7328732;19;11338;-85
2023/07/27 13:50:29;;;;;;;;;;;18.50;99.90;;;;;;7327271;19;9294;-84
2023/07/27 13:52:59;;;;;;;;;;;18.70;99.90;;;;;;7328195;19;9206;-85
2023/07/27 13:55:30;;;;;;;;;;;18.80;99.90;;;;;;7328358;19;9407;-85
2023/07/27 13:57:59;;;;;;;;;;;18.90;99.90;;;;;;7323505;19;9261;-85
2023/07/27 14:00:28;;;;;;;;;;;18.90;99.90;;;;;;7327943;19;9335;-85
2023/07/27 14:02:57;;;;;;;;;;;18.90;99.90;;;;;;7328120;19;9185;-84
2023/07/27 14:05:26;;;;;;;;;;;18.90;99.90;;;;;;7327298;19;9287;-85
2023/07/27 14:07:55;;;;;;;;;;;18.90;99.90;;;;;;7328325;19;9166;-85
2023/07/27 14:10:24;;;;;;;;;;;18.90;99.90;;;;;;7327844;19;9127;-85
2023/07/27 14:12:56;;;;;;;;;;;18.90;99.90;;;;;;7324079;19;9514;-85
2023/07/27 14:15:25;;;;;;;;;;;19.00;99.90;;;;;;7327088;19;9123;-84
2023/07/27 14:17:54;;;;;;;;;;;19.10;99.90;;;;;;7325288;19;9375;-85
2023/07/27 14:20:24;;;;;;;;;;;19.20;99.90;;;;;;7326270;19;9270;-85
2023/07/27 14:22:53;;;;;;;;;;;19.20;99.90;;;;;;7326590;19;9000;-85
2023/07/27 14:25:22;;;;;;;;;;;19.40;99.90;;;;;;7326793;19;9209;-84
2023/07/27 14:27:51;;;;;;;;;;;19.50;99.90;;;;;;7326406;19;9437;-84
2023/07/27 14:30:23;;;;;;;;;;;19.60;99.90;;;;;;7327679;19;9458;-85
2023/07/27 14:32:51;;;;;;;;;;;19.60;99.90;;;;;;7325257;19;10652;-84
2023/07/27 14:35:22;;;;;;;;;;;19.60;99.90;;;;;;7325903;19;9078;-85
2023/07/27 14:37:51;;;;;;;;;;;19.70;99.90;;;;;;7325460;19;9218;-84
2023/07/27 14:40:20;;;;;;;;;;;19.80;99.90;;;;;;7327140;19;9239;-85
2023/07/27 14:42:49;;;;;;;;;;;19.80;99.90;;;;;;7324655;19;9557;-84
2023/07/27 14:45:18;;;;;;;;;;;19.80;99.90;;;;;;7325942;19;9518;-85
2023/07/27 14:47:49;;;;;;;;;;;19.80;99.90;;;;;;7324730;19;9257;-84